Time;durP1;ratioP1;P1;durP2;ratioP2;P2;SDS_P1;SDS_P2;PMS_P1;PMS_P2;Temp;Humidity;BMP_temperature;BMP_pressure;BME280_temperature;BME280_humidity;BME280_pressure;Samples;Min_cycle;Max_cycle;Signal;HPM_P1;HPM_P2
2021/06/15 00:01:22;;;;;;;18.75;10.23;;;;;;;17.90;100.00;100652.15;1699552;84;20885;-86
2021/06/15 00:03:48;;;;;;;22.40;9.88;;;;;;;17.87;100.00;100659.58;1683473;85;21062;-85
2021/06/15 00:06:14;;;;;;;22.05;10.45;;;;;;;17.81;100.00;100663.54;1675365;84;20936;-85
2021/06/15 00:08:39;;;;;;;19.12;9.53;;;;;;;17.70;100.00;100658.83;1699271;84;20992;-86
2021/06/15 00:11:05;;;;;;;21.45;10.05;;;;;;;17.66;100.00;100658.64;1699423;84;20924;-85
2021/06/15 00:13:31;;;;;;;16.35;8.58;;;;;;;17.46;100.00;100639.44;1699141;84;21012;-85
2021/06/15 00:15:57;;;;;;;16.90;8.68;;;;;;;17.46;100.00;100639.44;1699590;84;20892;-85
2021/06/15 00:18:23;;;;;;;16.90;9.35;;;;;;;17.55;100.00;100661.32;1699459;84;20853;-85
2021/06/15 00:20:51;;;;;;;17.40;7.33;;;;;;;17.52;100.00;100664.66;1698081;84;20985;-86
2021/06/15 00:23:19;;;;;;;14.73;8.20;;;;;;;17.49;100.00;100661.18;1685271;85;21162;-86
2021/06/15 00:25:45;;;;;;;20.08;8.68;;;;;;;17.44;100.00;100659.91;1685233;84;21040;-85
2021/06/15 00:28:12;;;;;;;20.00;9.93;;;;;;;17.41;100.00;100653.19;1684517;85;21020;-85
2021/06/15 00:30:39;;;;;;;18.90;9.75;;;;;;;17.42;100.00;100654.78;1673937;85;21042;-85
2021/06/15 00:33:05;;;;;;;17.30;9.63;;;;;;;17.43;100.00;100655.03;1673969;85;21065;-85
2021/06/15 00:35:31;;;;;;;15.10;8.28;;;;;;;17.42;100.00;100639.00;1673911;85;21558;-85
2021/06/15 00:37:57;;;;;;;16.50;9.25;;;;;;;17.38;100.00;100633.89;1673986;85;20946;-85
2021/06/15 00:40:23;;;;;;;20.08;10.18;;;;;;;17.37;100.00;100637.17;1674103;85;20923;-85
2021/06/15 00:42:51;;;;;;;21.48;10.32;;;;;;;17.39;100.00;100634.16;1673849;85;21541;-85
2021/06/15 00:45:23;;;;;;;21.52;10.40;;;;;;;17.37;100.00;100616.75;1673721;85;21581;-85
2021/06/15 00:47:50;;;;;;;19.57;10.45;;;;;;;17.34;100.00;100609.18;1617541;87;21240;-85
2021/06/15 00:50:17;;;;;;;19.35;10.63;;;;;;;17.37;100.00;100611.86;1616607;88;21111;-85
2021/06/15 00:52:44;;;;;;;25.15;11.03;;;;;;;17.38;100.00;100610.20;1595209;88;21027;-85
2021/06/15 00:55:11;;;;;;;20.12;11.03;;;;;;;17.40;100.00;100609.88;1595418;88;21605;-85
2021/06/15 00:57:37;;;;;;;23.83;11.05;;;;;;;17.43;100.00;100607.34;1616628;88;21099;-85
2021/06/15 01:00:06;;;;;;;22.05;11.43;;;;;;;17.44;100.00;100608.15;1616743;88;21126;-85
2021/06/15 01:02:34;;;;;;;23.67;12.30;;;;;;;17.42;100.00;100613.13;1616717;88;21109;-85
2021/06/15 01:05:01;;;;;;;26.23;12.53;;;;;;;17.39;100.00;100610.44;1595200;88;21055;-85
2021/06/15 01:07:49;;;;;;;24.02;12.45;;;;;;;17.42;100.00;100619.93;1616440;88;21040;-85
2021/06/15 01:11:09;;;;;;;26.45;13.40;;;;;;;17.45;100.00;100602.41;1616615;88;21075;-85
2021/06/15 01:13:49;;;;;;;25.88;12.23;;;;;;;17.49;100.00;100599.31;1625388;87;21140;-85
2021/06/15 01:16:27;;;;;;;29.75;13.85;;;;;;;17.54;100.00;100605.22;1575375;89;21078;-85
2021/06/15 01:19:04;;;;;;;24.85;13.78;;;;;;;17.51;100.00;100597.66;1607269;89;21525;-85
2021/06/15 01:21:31;;;;;;;29.40;15.10;;;;;;;17.52;100.00;100597.09;1623770;88;21099;-84
2021/06/15 01:24:09;;;;;;;26.97;13.83;;;;;;;17.54;100.00;100595.69;1587986;89;21113;-85
2021/06/15 01:27:06;;;;;;;28.32;14.07;;;;;;;17.52;100.00;100603.34;1576995;90;21879;-85
2021/06/15 01:29:38;;;;;;;26.85;14.40;;;;;;;17.51;100.00;100603.67;1561522;90;21155;-85
2021/06/15 01:32:22;;;;;;;29.15;15.15;;;;;;;17.51;100.00;100604.47;1572367;91;21106;-85
2021/06/15 01:34:49;;;;;;;31.02;15.28;;;;;;;17.53;100.00;100602.25;1556219;90;21075;-84
2021/06/15 01:37:26;;;;;;;33.67;15.55;;;;;;;17.55;100.00;100602.73;1584916;90;21094;-85
2021/06/15 01:40:03;;;;;;;29.92;15.58;;;;;;;17.59;100.00;100603.75;1584939;90;22012;-85
2021/06/15 01:42:33;;;;;;;30.45;16.25;;;;;;;17.61;100.00;100600.14;1552681;92;21706;-84
2021/06/15 01:45:08;;;;;;;32.20;15.68;;;;;;;17.63;100.00;100603.94;1596830;89;21594;-84
2021/06/15 01:47:37;;;;;;;31.80;15.48;;;;;;;17.65;100.00;100601.16;1552644;92;21620;-84
2021/06/15 01:50:06;;;;;;;30.62;16.35;;;;;;;17.69;100.00;100608.16;1507365;95;21073;-85
2021/06/15 01:52:38;;;;;;;33.33;16.32;;;;;;;17.73;100.00;100602.89;1510513;95;21386;-85
2021/06/15 01:55:08;;;;;;;27.98;15.15;;;;;;;17.76;100.00;100599.55;1510739;95;21103;-84
2021/06/15 01:57:35;;;;;;;30.08;14.85;;;;;;;17.76;100.00;100603.64;1510739;95;21697;-84
2021/06/15 02:00:09;;;;;;;28.38;14.63;;;;;;;17.75;100.00;100596.59;1510415;95;21072;-85
2021/06/15 02:02:38;;;;;;;31.12;15.30;;;;;;;17.76;100.00;100591.38;1503345;95;21607;-85
2021/06/15 02:05:08;;;;;;;23.70;13.55;;;;;;;17.78;100.00;100591.35;1505293;95;21298;-85
2021/06/15 02:07:39;;;;;;;29.35;14.98;;;;;;;17.88;100.00;100593.02;1505263;95;21145;-85
2021/06/15 02:10:13;;;;;;;32.23;15.18;;;;;;;17.94;100.00;100599.97;1484505;95;21655;-85
2021/06/15 02:12:44;;;;;;;28.38;14.60;;;;;;;17.94;100.00;100599.97;1509978;94;21164;-85
2021/06/15 02:15:16;;;;;;;31.65;14.33;;;;;;;18.01;100.00;100595.47;1546314;92;21607;-85
2021/06/15 02:17:47;;;;;;;25.97;13.58;;;;;;;18.03;100.00;100596.77;1546168;92;21569;-85
2021/06/15 02:20:15;;;;;;;35.45;15.28;;;;;;;17.97;100.00;100575.36;1546144;92;21086;-84
2021/06/15 02:22:48;;;;;;;30.43;15.20;;;;;;;18.12;100.00;100594.91;1557904;88;21115;-84
2021/06/15 02:25:25;;;;;;;37.03;16.73;;;;;;;18.20;100.00;100593.91;1565350;90;21064;-84
2021/06/15 02:27:52;;;;;;;28.85;15.20;;;;;;;18.26;100.00;100592.09;1542433;91;21578;-85
2021/06/15 02:30:18;;;;;;;32.70;17.23;;;;;;;18.34;100.00;100588.62;1558055;91;21216;-85
2021/06/15 02:32:45;;;;;;;27.30;15.25;;;;;;;18.44;100.00;100593.00;1556665;92;21045;-85
2021/06/15 02:35:13;;;;;;;32.95;16.02;;;;;;;18.54;100.00;100595.47;1541594;93;21085;-84
2021/06/15 02:37:45;;;;;;;26.97;15.90;;;;;;;18.61;100.00;100593.09;1541532;93;21168;-85
2021/06/15 02:40:13;;;;;;;31.93;15.72;;;;;;;18.72;100.00;100583.27;1539402;93;21648;-85
2021/06/15 02:42:44;;;;;;;34.27;14.35;;;;;;;18.85;100.00;100585.11;1541685;93;21108;-85
2021/06/15 02:45:14;;;;;;;25.95;14.45;;;;;;;18.99;100.00;100583.08;1541486;93;21571;-84
2021/06/15 02:47:46;;;;;;;24.55;12.43;;;;;;;19.31;100.00;100585.17;1541771;93;21112;-85
2021/06/15 02:50:16;;;;;;;24.20;12.40;;;;;;;19.82;100.00;100584.99;1554450;92;21149;-84
2021/06/15 02:53:03;;;;;;;23.42;11.90;;;;;;;20.33;100.00;100578.43;1541444;92;21077;-84
2021/06/15 02:55:39;;;;;;;18.35;10.68;;;;;;;20.79;100.00;100576.84;1493306;96;21132;-85
2021/06/15 02:58:06;;;;;;;21.55;10.50;;;;;;;21.13;100.00;100575.06;1508862;95;21118;-84
2021/06/15 03:00:34;;;;;;;19.25;9.93;;;;;;;21.16;100.00;100571.09;1559506;90;21196;-84
2021/06/15 03:03:01;;;;;;;18.67;10.03;;;;;;;21.04;100.00;100571.01;1556613;92;21121;-84
2021/06/15 03:05:28;;;;;;;20.23;10.68;;;;;;;20.94;100.00;100571.37;1535970;92;21056;-85
2021/06/15 03:07:54;;;;;;;22.15;13.25;;;;;;;20.86;100.00;100583.99;1533336;92;21182;-84
2021/06/15 03:10:22;;;;;;;26.65;16.05;;;;;;;20.84;100.00;100578.83;1556289;92;21141;-84
2021/06/15 03:13:08;;;;;;;25.48;16.12;;;;;;;20.92;100.00;100585.41;1556335;91;21080;-84
2021/06/15 03:15:55;;;;;;;24.23;14.30;;;;;;;21.30;100.00;100577.70;1555363;92;21093;-84
2021/06/15 03:18:53;;;;;;;25.57;11.10;;;;;;;21.92;100.00;100580.24;1560182;91;21065;-84
2021/06/15 03:21:21;;;;;;;30.17;11.80;;;;;;;22.54;100.00;100572.44;1557015;90;21659;-83
2021/06/15 03:24:05;;;;;;;20.68;10.05;;;;;;;23.04;100.00;100569.17;1561742;90;21653;-83
2021/06/15 03:26:52;;;;;;;;;;;;;;;23.33;100.00;100563.40;1584709;90;21093;-83
2021/06/15 03:29:23;;;;;;;27.42;12.20;;;;;;;23.69;100.00;100556.19;1581942;89;20549;-84
2021/06/15 03:31:52;;;;;;;17.92;8.80;;;;;;;23.95;100.00;100555.77;1574000;91;21259;-84
2021/06/15 03:34:25;;;;;;;14.45;7.03;;;;;;;23.99;100.00;100557.23;1574193;91;21386;-84
2021/06/15 03:36:54;;;;;;;15.80;7.20;;;;;;;24.08;100.00;100563.38;1574114;91;21064;-85
2021/06/15 03:39:21;;;;;;;11.83;6.30;;;;;;;24.39;100.00;100563.23;1574101;91;21143;-84
2021/06/15 03:41:53;;;;;;;10.88;6.33;;;;;;;24.64;100.00;100569.39;1553929;91;21013;-85
2021/06/15 03:44:21;;;;;;;17.40;6.30;;;;;;;24.86;100.00;100568.77;1574157;91;21172;-85
2021/06/15 03:46:51;;;;;;;11.10;6.05;;;;;;;25.09;100.00;100572.22;1657855;86;21102;-89
2021/06/15 03:49:23;;;;;;;12.35;6.37;;;;;;;25.43;100.00;100567.11;1634016;87;21115;-84
2021/06/15 03:51:59;;;;;;;9.63;5.75;;;;;;;26.05;100.00;100572.14;1657842;86;21129;-83
2021/06/15 03:54:27;;;;;;;12.40;5.87;;;;;;;26.70;100.00;100576.28;1631300;87;21047;-84
2021/06/15 03:56:58;;;;;;;8.35;6.00;;;;;;;27.08;100.00;100582.02;1657695;86;21070;-83
2021/06/15 03:59:27;;;;;;;12.55;6.05;;;;;;;27.08;100.00;100583.39;1630842;88;22021;-84
2021/06/15 04:02:00;;;;;;;9.90;5.60;;;;;;;27.14;100.00;100581.31;1674631;85;21609;-83
2021/06/15 04:04:30;;;;;;;10.68;6.20;;;;;;;27.33;100.00;100585.19;1637936;86;21087;-84
2021/06/15 04:06:56;;;;;;;15.25;6.15;;;;;;;27.39;100.00;100582.30;1685237;85;21089;-84
2021/06/15 04:09:36;;;;;;;10.78;4.92;;;;;;;27.53;100.00;100589.42;1659535;85;21152;-83
2021/06/15 04:12:03;;;;;;;7.87;4.87;;;;;;;27.43;100.00;100598.36;1685405;85;21195;-83
2021/06/15 04:14:31;;;;;;;8.80;5.12;;;;;;;27.28;100.00;100592.42;1659170;85;21063;-83
2021/06/15 04:16:59;;;;;;;10.05;4.87;;;;;;;27.16;100.00;100591.46;1681095;83;21038;-83
2021/06/15 04:19:39;;;;;;;14.80;5.10;;;;;;;27.31;100.00;100588.91;1735517;80;21002;-84
2021/06/15 04:22:09;;;;;;;11.68;4.85;;;;;;;27.37;100.00;100590.17;1687221;83;21008;-83
2021/06/15 04:24:38;;;;;;;8.35;4.70;;;;;;;27.45;100.00;100586.34;1682638;85;21468;-83
2021/06/15 04:27:06;;;;;;;12.70;4.80;;;;;;;27.67;100.00;100587.99;1682840;84;21033;-83
2021/06/15 04:29:32;;;;;;;10.28;4.65;;;;;;;27.99;100.00;100589.20;1682745;85;21084;-84
2021/06/15 04:32:00;;;;;;;7.58;4.37;;;;;;;28.17;100.00;100584.44;1685204;84;21001;-83
2021/06/15 04:34:28;;;;;;;6.65;4.47;;;;;;;28.40;100.00;100583.69;1657966;85;21092;-83
2021/06/15 04:37:01;;;;;;;7.08;4.47;;;;;;;28.61;100.00;100589.25;1685116;84;21200;-83
2021/06/15 04:39:41;;;;;;;8.90;4.53;;;;;;;28.81;100.00;100581.49;1681396;85;21528;-83
2021/06/15 04:42:15;;;;;;;11.25;4.75;;;;;;;29.13;100.00;100578.98;1682818;85;21008;-84
2021/06/15 04:44:45;;;;;;;10.82;5.03;;;;;;;29.56;98.07;100575.03;1702155;82;21170;-84
2021/06/15 04:47:31;;;;;;;13.30;6.15;;;;;;;30.19;94.20;100565.34;1685266;85;21476;-83
2021/06/15 04:50:08;;;;;;;10.63;5.03;;;;;;;30.09;90.98;100571.66;1715469;83;21147;-83
2021/06/15 04:52:36;;;;;;;9.40;4.78;;;;;;;30.03;86.43;100569.89;1710749;83;21566;-84
2021/06/15 04:55:05;;;;;;;13.25;4.83;;;;;;;30.18;89.83;100560.16;1715175;83;21053;-85
2021/06/15 04:57:38;;;;;;;7.45;4.60;;;;;;;30.39;83.92;100566.40;1715630;82;21007;-85
2021/06/15 05:00:05;;;;;;;10.23;4.55;;;;;;;30.40;83.13;100561.02;1699594;84;20940;-86
2021/06/15 05:02:34;;;;;;;8.70;4.45;;;;;;;30.48;84.40;100561.23;1686980;85;21378;-85
2021/06/15 05:05:00;;;;;;;8.78;4.00;;;;;;;30.78;84.42;100553.30;1702508;84;20992;-85
2021/06/15 05:07:27;;;;;;;8.93;5.12;;;;;;;31.00;78.79;100561.61;1695000;84;21047;-86
2021/06/15 05:10:03;;;;;;;9.25;4.35;;;;;;;31.09;77.61;100557.83;1695045;84;21020;-86
2021/06/15 05:12:40;;;;;;;7.62;4.55;;;;;;;31.38;78.11;100557.76;1715517;83;21512;-85
2021/06/15 05:15:12;;;;;;;8.48;4.62;;;;;;;31.54;76.57;100570.65;1671058;85;21008;-86
2021/06/15 05:17:48;;;;;;;4.95;4.40;;;;;;;31.66;71.58;100568.80;1638657;87;21089;-86
2021/06/15 05:20:15;;;;;;;7.85;4.58;;;;;;;31.67;73.83;100562.63;1635661;87;21068;-85
2021/06/15 05:23:00;;;;;;;8.78;3.65;;;;;;;31.99;70.55;100570.84;1638622;87;21618;-86
2021/06/15 05:25:27;;;;;;;6.90;4.17;;;;;;;32.12;68.17;100573.38;1585394;90;21123;-86
2021/06/15 05:27:53;;;;;;;6.65;4.08;;;;;;;32.06;69.91;100566.64;1585464;90;21044;-86
2021/06/15 05:30:21;;;;;;;7.10;4.20;;;;;;;32.47;68.30;100562.37;1564412;90;21043;-85
2021/06/15 05:32:47;;;;;;;8.58;4.17;;;;;;;32.62;68.52;100567.23;1585052;88;21063;-86
2021/06/15 05:35:13;;;;;;;8.00;4.03;;;;;;;33.12;65.24;100563.41;1584946;90;21100;-86
2021/06/15 05:37:42;;;;;;;8.48;4.15;;;;;;;33.49;63.81;100570.16;1585309;90;21020;-85
2021/06/15 05:40:10;;;;;;;5.78;4.12;;;;;;;33.23;58.99;100568.86;1585208;90;22461;-86
2021/06/15 05:42:36;;;;;;;6.58;4.10;;;;;;;33.07;59.20;100569.45;1585272;90;21055;-86
2021/06/15 05:45:03;;;;;;;6.05;3.90;;;;;;;33.18;62.00;100563.14;1583800;90;20960;-86
2021/06/15 05:47:32;;;;;;;7.55;4.75;;;;;;;33.32;59.15;100561.38;1533603;93;21142;-87
2021/06/15 05:49:58;;;;;;;7.33;3.83;;;;;;;33.07;57.14;100560.28;1533477;93;21011;-85
2021/06/15 05:52:25;;;;;;;6.03;4.25;;;;;;;33.01;60.01;100557.93;1533466;93;21135;-85
2021/06/15 05:54:51;;;;;;;6.47;4.35;;;;;;;33.73;56.45;100559.11;1533702;93;21090;-87
2021/06/15 05:57:18;;;;;;;10.88;4.65;;;;;;;33.27;54.62;100556.25;1533675;93;21759;-83
2021/06/15 05:59:44;;;;;;;7.80;4.47;;;;;;;33.31;58.84;100548.63;1532835;92;21288;-83
2021/06/15 06:02:09;;;;;;;9.10;4.10;;;;;;;33.58;57.60;100555.71;1550715;90;21126;-83
2021/06/15 06:10:01;;;;;;;8.38;4.85;;;;;;;35.68;50.12;100554.21;1605615;88;21030;-93
2021/06/15 06:12:27;;;;;;;7.42;4.50;;;;;;;35.58;50.73;100553.81;1641449;86;21050;-96
2021/06/15 06:14:53;;;;;;;13.68;4.58;;;;;;;35.93;48.82;100552.85;1630526;88;20896;-94
2021/06/15 06:17:38;;;;;;;6.25;4.83;;;;;;;35.82;48.86;100549.50;1630481;88;21117;-95
2021/06/15 06:20:05;;;;;;;9.20;4.80;;;;;;;36.00;49.15;100555.48;1636038;85;21098;-96
2021/06/15 06:22:44;;;;;;;7.67;4.15;;;;;;;36.09;47.12;100559.12;1680293;85;21017;-96
2021/06/15 06:25:16;;;;;;;7.58;4.40;;;;;;;35.92;46.05;100557.68;1651240;87;21028;-96
2021/06/15 06:27:43;;;;;;;6.30;4.62;;;;;;;35.80;47.89;100554.16;1692535;84;21024;-96
2021/06/15 06:30:11;;;;;;;6.58;4.20;;;;;;;35.46;46.91;100553.05;1689634;82;21245;-96
2021/06/15 06:32:38;;;;;;;7.40;4.20;;;;;;;35.33;47.01;100557.12;1668744;86;21012;-95
2021/06/15 06:39:43;;;;;;;11.68;4.05;;;;;;;35.51;47.02;100554.56;1668507;84;21125;-95
2021/06/15 06:42:10;;;;;;;8.00;3.67;;;;;;;35.20;47.67;100559.76;1668395;86;21109;-94
2021/06/15 06:44:36;;;;;;;7.25;4.00;;;;;;;35.56;46.76;100561.86;1668935;86;21232;-96
2021/06/15 06:50:42;;;;;;;7.72;4.00;;;;;;;35.89;47.17;100554.34;1679083;84;21081;-87
2021/06/15 06:53:08;;;;;;;8.48;4.03;;;;;;;35.88;45.60;100547.75;1709292;84;20965;-95
2021/06/15 06:55:34;;;;;;;7.83;4.12;;;;;;;36.31;45.48;100552.39;1709282;84;20970;-96
2021/06/15 06:58:16;;;;;;;8.03;4.22;;;;;;;36.30;44.68;100543.81;1709237;82;21103;-94
2021/06/15 07:00:41;;;;;;;7.37;4.33;;;;;;;36.26;42.79;100548.70;1709772;84;21070;-95
2021/06/15 07:03:07;;;;;;;9.38;4.12;;;;;;;36.00;43.16;100551.89;1710168;84;20910;-96
2021/06/15 07:09:15;;;;;;;6.58;3.72;;;;;;;36.50;45.09;100543.69;1708923;82;21620;-94
2021/06/15 07:11:41;;;;;;;5.67;3.98;;;;;;;37.65;42.61;100551.22;1709146;84;21327;-94
2021/06/15 07:14:07;;;;;;;7.90;3.70;;;;;;;37.20;38.90;100556.33;1709349;84;20899;-96
2021/06/15 07:26:40;;;;;;;5.45;3.70;;;;;;;36.66;39.70;100554.16;1705081;83;21039;-95
2021/06/15 07:29:06;;;;;;;12.20;4.35;;;;;;;36.68;38.86;100556.71;1695383;83;21051;-95
2021/06/15 07:31:32;;;;;;;4.10;3.47;;;;;;;35.93;39.05;100550.05;1716132;82;20905;-95
2021/06/15 07:34:33;;;;;;;8.73;3.90;;;;;;;35.62;38.84;100562.14;1708819;83;21129;-94
2021/06/15 07:36:59;;;;;;;6.47;3.70;;;;;;;35.67;40.33;100559.63;1729523;82;21589;-91
2021/06/15 07:39:25;;;;;;;4.97;3.58;;;;;;;36.24;39.78;100556.17;1728945;83;21137;-90
2021/06/15 07:41:51;;;;;;;11.90;3.95;;;;;;;36.22;37.96;100553.62;1728876;83;21666;-92
2021/06/15 07:44:17;;;;;;;5.55;3.33;;;;;;;35.67;39.48;100550.42;1728877;83;20893;-90
2021/06/15 07:46:43;;;;;;;4.47;3.40;;;;;;;35.71;39.94;100550.54;1722368;83;21008;-94
2021/06/15 07:49:09;;;;;;;6.45;3.42;;;;;;;36.00;39.92;100549.88;1729507;82;21616;-93
2021/06/15 07:51:36;;;;;;;5.37;3.40;;;;;;;36.09;39.36;100547.30;1729265;83;21047;-93
2021/06/15 07:54:04;;;;;;;11.78;3.58;;;;;;;36.17;39.54;100543.70;1729637;83;21027;-96
2021/06/15 08:01:21;;;;;;;4.00;3.10;;;;;;;36.75;39.05;100537.47;1729113;82;21029;-96
2021/06/15 08:03:47;;;;;;;9.90;3.95;;;;;;;36.63;37.33;100536.80;1729525;82;21048;-96
2021/06/15 08:06:16;;;;;;;8.63;4.03;;;;;;;36.89;38.64;100533.47;1691746;84;21118;-95
2021/06/15 08:08:42;;;;;;;5.50;3.70;;;;;;;36.62;36.91;100520.53;1668421;83;21631;-94
2021/06/15 08:11:08;;;;;;;13.05;3.15;;;;;;;36.33;37.12;100520.48;1691976;84;21008;-95
2021/06/15 08:17:48;;;;;;;5.95;3.60;;;;;;;35.03;38.10;100516.04;1690866;82;21106;-96
2021/06/15 08:20:15;;;;;;;3.90;3.10;;;;;;;35.98;38.87;100522.89;1691589;84;21073;-94
2021/06/15 08:22:41;;;;;;;5.22;3.00;;;;;;;35.88;37.57;100525.31;1691409;83;21530;-95
2021/06/15 08:38:26;;;;;;;4.12;2.90;;;;;;;36.23;37.32;100509.67;1698544;81;21078;-94
2021/06/15 08:40:53;;;;;;;3.55;2.70;;;;;;;36.24;36.58;100509.05;1738546;80;21470;-91
2021/06/15 08:43:22;;;;;;;4.92;2.90;;;;;;;36.00;35.70;100510.59;1738656;81;21074;-96
2021/06/15 08:45:49;;;;;;;3.67;3.15;;;;;;;35.89;35.04;100508.68;1708127;82;21061;-91
2021/06/15 08:48:15;;;;;;;5.65;3.22;;;;;;;35.81;36.13;100518.48;1737879;81;21218;-94
2021/06/15 08:50:44;;;;;;;8.58;3.30;;;;;;;35.79;36.56;100509.08;1719098;82;21018;-89
2021/06/15 08:53:12;;;;;;;9.03;4.97;;;;;;;35.81;37.85;100513.65;1737786;82;21035;-90
2021/06/15 08:55:43;;;;;;;5.20;3.40;;;;;;;36.04;38.22;100509.94;1738010;82;21506;-88
2021/06/15 08:58:45;;;;;;;5.08;3.05;;;;;;;36.27;36.25;100512.38;1735128;82;21057;-90
2021/06/15 09:01:14;;;;;;;6.92;3.00;;;;;;;36.23;35.92;100505.45;1735733;82;21187;-87
2021/06/15 09:03:41;;;;;;;24.37;8.78;;;;;;;36.55;37.37;100510.28;1737882;81;21026;-88
2021/06/15 09:06:09;;;;;;;6.10;4.12;;;;;;;36.53;36.93;100504.34;1734719;82;21478;-88
2021/06/15 09:08:56;;;;;;;4.83;3.50;;;;;;;36.75;37.47;100493.94;1737939;82;21513;-89
2021/06/15 09:11:47;;;;;;;4.35;3.10;;;;;;;36.98;36.75;100500.70;1737938;82;21042;-90
2021/06/15 09:14:14;;;;;;;6.78;3.60;;;;;;;37.33;36.48;100493.10;1737630;81;21084;-86
2021/06/15 09:16:46;;;;;;;4.95;3.02;;;;;;;37.63;36.14;100486.21;1737371;82;20995;-88
2021/06/15 09:19:21;;;;;;;5.50;3.00;;;;;;;37.16;34.85;100491.01;1734876;82;21541;-94
2021/06/15 09:21:50;;;;;;;6.95;3.70;;;;;;;36.65;34.99;100487.38;1737902;82;21137;-93
2021/06/15 09:24:26;;;;;;;3.25;2.92;;;;;;;36.72;35.59;100482.96;1738001;82;20987;-96
2021/06/15 09:29:55;;;;;;;3.70;2.83;;;;;;;36.69;35.14;100483.06;1509874;93;21095;-95
2021/06/15 10:13:02;;;;;;;7.28;3.35;;;;;;;32.42;41.90;100453.39;1530550;88;21211;-95
2021/06/15 10:15:29;;;;;;;4.97;3.30;;;;;;;31.73;44.73;100446.73;1562241;91;21632;-92
2021/06/15 10:17:57;;;;;;;4.53;3.00;;;;;;;31.95;43.98;100448.03;1562334;91;21113;-95
2021/06/15 10:20:37;;;;;;;4.85;3.27;;;;;;;31.83;43.71;100436.13;1562226;91;21047;-90
2021/06/15 10:23:06;;;;;;;4.80;3.15;;;;;;;31.97;46.27;100430.27;1574204;87;21069;-92
2021/06/15 10:25:34;;;;;;;4.58;3.30;;;;;;;32.41;43.98;100428.69;1629426;88;21057;-96
2021/06/15 10:28:12;;;;;;;9.40;3.95;;;;;;;32.54;43.09;100427.79;1628318;87;21117;-90
2021/06/15 10:30:42;;;;;;;5.90;3.17;;;;;;;32.22;43.54;100418.31;1629002;87;21842;-96
2021/06/15 10:37:35;;;;;;;7.08;3.42;;;;;;;31.81;42.36;100416.83;1608901;86;21565;-94
2021/06/15 10:40:15;;;;;;;3.85;3.00;;;;;;;31.93;44.39;100408.00;1655667;85;20981;-94
2021/06/15 10:43:18;;;;;;;6.37;3.47;;;;;;;32.01;44.21;100397.59;1687934;85;21078;-94
2021/06/15 10:45:51;;;;;;;3.90;2.95;;;;;;;31.86;45.37;100401.08;1603968;88;21634;-96
2021/06/15 10:48:22;;;;;;;5.72;3.22;;;;;;;31.96;46.37;100390.45;1622807;87;21117;-88
2021/06/15 10:50:54;;;;;;;6.17;3.27;;;;;;;32.16;45.88;100389.89;1622505;88;21108;-93
2021/06/15 10:53:39;;;;;;;3.20;2.90;;;;;;;32.40;45.47;100381.87;1622901;88;21081;-94
2021/06/15 11:00:13;;;;;;;4.03;3.15;;;;;;;32.08;44.61;100376.61;1654978;85;21168;-95
2021/06/15 11:02:44;;;;;;;5.50;3.27;;;;;;;31.16;45.91;100375.43;1654690;86;21119;-88
2021/06/15 11:05:48;;;;;;;7.37;3.50;;;;;;;31.18;48.23;100380.00;1651185;86;21072;-90
2021/06/15 11:08:29;;;;;;;5.87;3.27;;;;;;;31.51;47.47;100374.27;1654420;86;21076;-91
2021/06/15 11:11:02;;;;;;;3.75;2.80;;;;;;;31.93;45.68;100367.58;1654692;86;21085;-89
2021/06/15 11:13:56;;;;;;;6.95;3.37;;;;;;;31.77;45.80;100361.70;1654228;86;22082;-90
2021/06/15 11:16:46;;;;;;;5.58;3.15;;;;;;;32.02;46.16;100365.71;1650051;87;21174;-89
2021/06/15 11:19:18;;;;;;;4.40;2.67;;;;;;;32.02;44.84;100362.92;1633709;87;21695;-89
2021/06/15 11:21:59;;;;;;;3.95;3.10;;;;;;;31.73;43.29;100366.53;1643158;84;20995;-89
2021/06/15 11:24:41;;;;;;;3.75;3.25;;;;;;;31.63;45.33;100363.41;1673075;85;21545;-91
2021/06/15 11:27:24;;;;;;;4.20;2.55;;;;;;;31.74;43.65;100341.05;1672931;85;21143;-90
2021/06/15 11:29:56;;;;;;;5.90;3.08;;;;;;;32.24;44.35;100345.37;1673122;85;21545;-90
2021/06/15 11:32:34;;;;;;;3.72;3.10;;;;;;;32.58;43.83;100351.80;1673301;85;21038;-92
2021/06/15 11:35:05;;;;;;;5.55;2.92;;;;;;;32.64;44.88;100359.72;1673169;85;21198;-90
2021/06/15 11:37:48;;;;;;;5.20;2.98;;;;;;;32.57;44.58;100353.62;1700878;84;21035;-90
2021/06/15 11:40:44;;;;;;;3.35;2.50;;;;;;;32.28;44.69;100351.11;1700706;84;21597;-89
2021/06/15 11:43:17;;;;;;;5.22;3.30;;;;;;;32.07;42.92;100340.97;1682095;84;21051;-88
2021/06/15 11:45:50;;;;;;;3.95;2.87;;;;;;;32.19;44.58;100334.69;1723344;82;21024;-94
2021/06/15 11:48:34;;;;;;;9.53;3.25;;;;;;;32.41;43.86;100347.78;1629752;87;21028;-92
2021/06/15 11:51:07;;;;;;;4.62;2.98;;;;;;;32.41;44.32;100340.20;1629931;88;21169;-91
2021/06/15 11:53:37;;;;;;;5.50;2.87;;;;;;;32.23;42.75;100352.16;1626698;86;21119;-91
2021/06/15 11:56:11;;;;;;;3.50;2.52;;;;;;;31.94;42.32;100351.64;1633393;85;21642;-92
2021/06/15 12:01:38;;;;;;;3.27;2.72;;;;;;;32.06;43.60;100338.58;1590160;89;21178;-94
2021/06/15 12:04:08;;;;;;;3.65;2.92;;;;;;;32.24;42.60;100341.19;1590485;90;21098;-92
2021/06/15 12:06:40;;;;;;;6.60;3.15;;;;;;;32.21;42.68;100327.48;1587935;90;21876;-92
2021/06/15 12:09:06;;;;;;;15.70;3.80;;;;;;;32.12;42.47;100327.98;1590794;90;21041;-90
2021/06/15 12:11:37;;;;;;;11.63;2.90;;;;;;;32.20;41.93;100332.08;1590471;90;21054;-90
2021/06/15 12:14:05;;;;;;;5.58;3.00;;;;;;;32.02;42.00;100332.25;1590477;90;21054;-91
2021/06/15 12:16:34;;;;;;;8.05;2.75;;;;;;;32.13;43.39;100325.37;1535718;93;21624;-91
2021/06/15 12:19:00;;;;;;;7.55;3.40;;;;;;;32.30;41.51;100326.39;1535871;93;21123;-91
2021/06/15 12:21:37;;;;;;;5.17;2.60;;;;;;;32.29;41.65;100326.19;1536059;93;21609;-89
2021/06/15 12:24:08;;;;;;;21.23;4.72;;;;;;;32.05;41.78;100325.85;1516535;93;21134;-89
2021/06/15 12:26:46;;;;;;;4.47;2.52;;;;;;;32.02;42.76;100336.44;1535421;93;21167;-90
2021/06/15 12:29:16;;;;;;;5.65;2.40;;;;;;;32.07;41.51;100330.42;1535130;93;21119;-88
2021/06/15 12:31:45;;;;;;;2.55;2.05;;;;;;;32.29;41.30;100317.81;1481508;96;21128;-91
2021/06/15 12:34:18;;;;;;;4.17;2.72;;;;;;;32.68;42.33;100318.01;1481511;96;21093;-90
2021/06/15 12:36:56;;;;;;;4.42;2.50;;;;;;;32.93;42.06;100315.48;1481672;96;21133;-94
2021/06/15 12:39:29;;;;;;;3.67;2.35;;;;;;;33.17;41.11;100301.00;1481338;96;21194;-89
2021/06/15 12:42:04;;;;;;;4.67;2.52;;;;;;;33.18;40.07;100302.56;1481918;96;21440;-89
2021/06/15 12:44:34;;;;;;;2.85;2.42;;;;;;;33.01;41.36;100293.27;1480962;93;21092;-93
2021/06/15 12:47:13;;;;;;;6.75;2.60;;;;;;;32.76;41.59;100297.75;1538758;93;21115;-91
2021/06/15 12:49:54;;;;;;;9.33;2.77;;;;;;;32.38;42.97;100297.01;1519342;94;21107;-93
2021/06/15 12:52:22;;;;;;;3.37;2.70;;;;;;;32.05;44.01;100289.00;1542338;91;21529;-93
2021/06/15 12:54:49;;;;;;;7.58;2.80;;;;;;;31.79;45.45;100294.60;1527116;94;21112;-91
2021/06/15 12:57:30;;;;;;;3.77;2.52;;;;;;;31.30;47.38;100281.27;1522127;94;21628;-89
2021/06/15 13:00:00;;;;;;;5.12;2.70;;;;;;;30.92;49.02;100276.16;1455087;97;21222;-91
2021/06/15 13:02:27;;;;;;;3.33;2.10;;;;;;;30.61;50.97;100274.48;1445313;98;21130;-91
2021/06/15 13:04:57;;;;;;;3.15;2.20;;;;;;;30.70;51.19;100274.84;1433101;98;21153;-91
2021/06/15 13:17:35;;;;;;;3.62;2.55;;;;;;;30.99;53.80;100280.28;1506724;94;21160;-88
2021/06/15 13:20:11;;;;;;;6.80;2.65;;;;;;;30.96;54.59;100283.27;1534444;92;21548;-89
2021/06/15 13:22:41;;;;;;;4.35;2.87;;;;;;;31.08;53.61;100276.44;1543715;92;21551;-91
2021/06/15 13:25:13;;;;;;;3.67;2.40;;;;;;;31.24;56.82;100288.48;1520840;92;21948;-90
2021/06/15 13:30:25;;;;;;;4.03;2.60;;;;;;;31.21;54.27;100303.22;1379866;102;21213;-88
2021/06/15 13:33:16;;;;;;;17.85;2.65;;;;;;;31.09;56.52;100342.07;1382667;102;21616;-85
2021/06/15 13:35:48;;;;;;;12.37;2.47;;;;;;;30.31;49.35;100382.85;1390783;102;21684;-86